Honolulu, HI

7:08 PM HST on April 21, 2015 (GMT -1000)
Pacific Heights | | Change Station
CLOSE
Current Station
Personal Weather Station
Location: Honolulu, HI
Elevation: 528 ft
Nearby Weather Stations
Active Advisory: High Surf Advisory

Elev 528 ft 21.33 °N, 157.84 °W | Updated 18 seconds ago

Rain
Rain
70.3 °F
Feels Like 70.3 °F
N
6.9
Wind Variable Wind from ESE
Gusts 10.0 mph

Today
High -- | Low -- °F
--% Chance of Precip.
Yesterday
High -- | Low -- °F
Precip. -- in
6:07 AM 6:52 PM
Waxing Crescent, 15% visible
Pressure 30.02 in
Visibility 10.0 miles
Clouds Few 3000 ft
Scattered Clouds 6000 ft
Dew Point 67 °F
Humidity 88%
Rainfall 0.36 in
Snow Depth Not available.
UV 0 out of 12
Pollen Not available.
Air Quality Not available.
Flu Activity Regional
METAR PHNL 220453Z 07012KT 10SM FEW030 SCT060 24/18 A3002 RMK AO2 SLP166 T02440183

More Conditions Fewer Conditions

Pressure 30.02 in
Visibility 10.0 miles
Clouds Few 3000 ft
Scattered Clouds 6000 ft
Dew Point 67 °F
Humidity 88%
Rainfall 0.36 in
Snow Depth Not available.
UV 0 out of 12
Pollen Not available.
Air Quality Not available.
Flu Activity Regional
METAR PHNL 220453Z 07012KT 10SM FEW030 SCT060 24/18 A3002 RMK AO2 SLP166 T02440183

More Conditions Fewer Conditions

10-Day Weather Forecast

Almanac

Astronomy

Apr. 21, 2015 Rise Set
Actual Time
Civil Twilight
Nautical Twilight
Astronomical Twilight
Moon
Length of Visible Light
Length of Day
Tomorrow will be .
, % of the Moon is Illuminated

Today's Extremes

State Highs State Lows

Community

WunderPhotos

Upload Photos

1,815,668 photos uploaded!

WunderBlogs® & News

Nearby

Air Quality

  Air Quality AQ Index Pollutant
Not available.

Snow Depth

Station Depth Elevation

Earthquake Activity

City Distance Mag. Time & Date
Minimum magnitude displayed is 2.5.

Coastal Water Temperatures

Place Temperature

Stations

Nearby Weather Stations

Station Location Temp. Windchill Dew Point Humidity Wind Precip. Elev Updated Type
                   
High Surf Advisory
Statement as of 3:37 PM HST on April 21, 2015

... High surf advisory now in effect until 6 am HST Thursday...

The high surf advisory is now in effect until 6 am HST Thursday.

* Surf... 6 to 8 feet along east facing shores.

* Timing... through Wednesday night.

* Impacts... moderate... expect strong breaking waves... shore
break... and strong longshore and rip currents making swimming
difficult and dangerous.

Precautionary/preparedness actions...

Beachgoers... swimmers... and surfers should heed all advice given
by ocean safety officials and be careful.